createdAt,value
2019-04-12T09:42:58.125Z,1023.85
2019-04-12T09:43:58.131Z,1023.86
2019-04-12T09:44:58.169Z,1023.88
2019-04-12T09:45:58.172Z,1023.93
2019-04-12T09:46:58.546Z,1023.88
2019-04-12T09:47:58.748Z,1023.98
2019-04-12T09:48:58.660Z,1023.91
2019-04-12T09:49:58.693Z,1023.89
2019-04-12T09:50:58.707Z,1023.95
2019-04-12T09:51:59.012Z,1023.98
2019-04-12T09:52:59.136Z,1023.92
2019-04-12T09:53:59.060Z,1023.96
2019-04-12T09:54:59.147Z,1023.93
2019-04-12T09:55:59.327Z,1023.94
2019-04-12T09:56:59.376Z,1023.92
2019-04-12T09:57:59.484Z,1023.94
2019-04-12T09:58:59.824Z,1023.92
2019-04-12T09:59:59.846Z,1023.91
2019-04-12T10:00:59.887Z,1023.88
2019-04-12T10:02:12.697Z,1023.95
2019-04-12T10:03:00.024Z,1023.89
2019-04-12T10:04:00.256Z,1023.99
2019-04-12T10:05:00.682Z,1023.93
2019-04-12T10:06:01.170Z,1023.9
2019-04-12T10:07:01.093Z,1023.88
2019-04-12T10:08:01.118Z,1023.91
2019-04-12T10:09:01.322Z,1023.95
2019-04-12T10:10:01.339Z,1023.94
2019-04-12T10:11:01.868Z,1023.9
2019-04-12T10:12:01.781Z,1023.92
2019-04-12T10:13:01.972Z,1023.93
2019-04-12T10:14:02.406Z,1023.9
2019-04-12T10:15:02.700Z,1023.89
2019-04-12T10:16:02.564Z,1023.88
2019-04-12T10:17:02.473Z,1023.87
2019-04-12T10:18:02.609Z,1023.85
2019-04-12T10:19:03.017Z,1023.86
2019-04-12T10:20:03.237Z,1023.86
2019-04-12T10:21:03.063Z,1023.83
2019-04-12T10:22:03.099Z,1023.82
2019-04-12T10:23:03.115Z,1023.86
2019-04-12T10:24:03.559Z,1023.89
2019-04-12T10:25:03.700Z,1023.93
2019-04-12T10:26:03.614Z,1023.87
2019-04-12T10:27:03.634Z,1023.81
2019-04-12T10:28:03.668Z,1023.83
2019-04-12T10:29:03.683Z,1023.84
2019-04-12T10:30:03.808Z,1023.82
2019-04-12T10:31:03.730Z,1023.87
2019-04-12T10:32:04.183Z,1023.81
2019-04-12T10:33:04.313Z,1023.85
2019-04-12T10:34:04.447Z,1023.81
2019-04-12T10:35:04.374Z,1023.82
2019-04-12T10:36:04.997Z,1023.82
2019-04-12T10:37:05.014Z,1023.85
2019-04-12T10:38:05.042Z,1023.82
2019-04-12T10:39:05.282Z,1023.76
2019-04-12T10:40:05.242Z,1023.85
2019-04-12T10:41:05.223Z,1023.77
2019-04-12T10:42:05.258Z,1023.75
2019-04-12T10:43:05.274Z,1023.71
2019-04-12T10:44:05.771Z,1023.72
2019-04-12T10:45:05.693Z,1023.73
2019-04-12T10:46:05.714Z,1023.73
2019-04-12T10:47:05.859Z,1023.67
2019-04-12T10:48:05.884Z,1023.72
2019-04-12T10:49:06.015Z,1023.7
2019-04-12T10:50:05.935Z,1023.7
2019-04-12T10:51:05.959Z,1023.73
2019-04-12T10:52:06.373Z,1023.71
2019-04-12T10:53:06.865Z,1023.72
2019-04-12T10:54:06.784Z,1023.7
2019-04-12T10:55:07.067Z,1023.72
2019-04-12T10:56:07.490Z,1023.75
2019-04-12T10:57:07.511Z,1023.72
2019-04-12T10:58:07.641Z,1023.73
2019-04-12T10:59:07.561Z,1023.72
2019-04-12T11:00:10.764Z,1023.69
2019-04-12T11:01:11.196Z,1023.76
2019-04-12T11:02:11.463Z,1023.79
2019-04-12T11:03:11.384Z,1023.83
2019-04-12T11:04:11.411Z,1023.77
2019-04-12T11:05:11.432Z,1023.73
2019-04-12T11:06:11.616Z,1023.73
2019-04-12T11:07:11.745Z,1023.72
2019-04-12T11:08:11.671Z,1023.7
2019-04-12T11:09:11.693Z,1023.7
2019-04-12T11:10:11.716Z,1023.72
2019-04-12T11:11:11.736Z,1023.65
2019-04-12T11:12:11.871Z,1023.64
2019-04-12T11:13:11.790Z,1023.65
2019-04-12T11:14:12.175Z,1023.6
2019-04-12T11:15:22.289Z,1023.59
2019-04-12T11:16:22.047Z,1023.6
2019-04-12T11:17:21.968Z,1023.58
2019-04-12T11:18:22.122Z,1023.58
2019-04-12T11:19:22.529Z,1023.54
2019-04-12T11:20:22.658Z,1023.55
2019-04-12T11:21:22.576Z,1023.62
2019-04-12T11:22:22.601Z,1023.66
2019-04-12T11:23:22.633Z,1023.51
2019-04-12T11:24:22.656Z,1023.53
2019-04-12T11:25:28.856Z,1023.55
2019-04-12T11:26:22.702Z,1023.59
2019-04-12T11:27:22.728Z,1023.57
2019-04-12T11:28:23.142Z,1023.55
2019-04-12T11:29:23.165Z,1023.67
2019-04-12T11:30:23.295Z,1023.53
2019-04-12T11:31:23.218Z,1023.56
2019-04-12T11:32:23.243Z,1023.57
2019-04-12T11:33:23.268Z,1023.55
2019-04-12T11:34:23.290Z,1023.49
2019-04-12T11:35:23.428Z,1023.55
2019-04-12T11:36:23.344Z,1023.57
2019-04-12T11:37:23.370Z,1023.54
2019-04-12T11:38:23.785Z,1023.55
2019-04-12T11:39:24.000Z,1023.52
2019-04-12T11:40:23.931Z,1023.52
2019-04-12T11:41:23.952Z,1023.51
2019-04-12T11:42:23.977Z,1023.49
2019-04-12T11:43:24.394Z,1023.43
2019-04-12T11:44:24.522Z,1023.51
2019-04-12T11:45:24.442Z,1023.5
2019-04-12T11:46:37.777Z,1023.48
2019-04-12T11:47:37.154Z,1023.44
2019-04-12T11:48:37.287Z,1023.42
2019-04-12T11:49:37.228Z,1023.41
2019-04-12T11:50:37.628Z,1023.42
2019-04-12T11:51:38.009Z,1023.44
2019-04-12T11:52:38.040Z,1023.41
2019-04-12T11:53:38.236Z,1023.4
2019-04-12T11:54:38.087Z,1023.45
2019-04-12T11:55:38.519Z,1023.39
2019-04-12T11:56:38.668Z,1023.4
2019-04-12T11:57:38.797Z,1023.4
2019-04-12T11:58:48.580Z,1023.41
2019-04-12T11:59:47.736Z,1023.47
2019-04-12T12:00:48.077Z,1023.37
2019-04-12T12:01:48.533Z,1023.37
2019-04-12T12:02:48.554Z,1023.44
2019-04-12T12:03:48.566Z,1023.37
2019-04-12T12:04:48.634Z,1023.43
2019-04-12T12:05:48.655Z,1023.41
2019-04-12T12:06:48.795Z,1023.41
2019-04-12T12:07:50.504Z,1023.41
2019-04-12T12:08:50.348Z,1023.44
2019-04-12T12:09:50.487Z,1023.35
2019-04-12T12:10:50.683Z,1023.4
2019-04-12T12:11:50.608Z,1023.38
2019-04-12T12:12:50.674Z,1023.4
2019-04-12T12:13:50.685Z,1023.41
2019-04-12T12:14:51.082Z,1023.38
2019-04-12T12:15:51.428Z,1023.4
2019-04-12T12:16:51.385Z,1023.37
2019-04-12T12:17:51.627Z,1023.34
2019-04-12T12:18:51.666Z,1023.37
2019-04-12T12:19:52.089Z,1023.43
2019-04-12T12:20:52.162Z,1023.4
2019-04-12T12:21:53.315Z,1023.4
2019-04-12T12:22:52.897Z,1023.4
2019-04-12T12:23:53.316Z,1023.39
2019-04-12T12:24:53.280Z,1023.39
2019-04-12T12:25:53.281Z,1023.37
2019-04-12T12:26:53.357Z,1023.41
2019-04-12T12:27:53.503Z,1023.4
2019-04-12T12:28:54.018Z,1023.38
2019-04-12T12:29:53.935Z,1023.35
2019-04-12T12:30:54.361Z,1023.36
2019-04-12T12:31:54.393Z,1023.33
2019-04-12T12:32:54.524Z,1023.25
2019-04-12T12:33:54.663Z,1023.27
2019-04-12T12:34:54.731Z,1023.22
2019-04-12T12:35:54.795Z,1023.27
2019-04-12T12:36:55.055Z,1023.31
2019-04-12T12:37:55.337Z,1023.29
2019-04-12T12:38:55.251Z,1023.3
2019-04-12T12:39:55.369Z,1023.24
2019-04-12T12:40:55.403Z,1023.29
2019-04-12T12:41:55.527Z,1023.25
2019-04-12T12:42:55.457Z,1023.27
2019-04-12T12:43:55.475Z,1023.33
2019-04-12T12:44:55.500Z,1023.32
2019-04-12T12:45:55.915Z,1023.24
2019-04-12T12:46:56.359Z,1023.29
2019-04-12T12:47:56.662Z,1023.28
2019-04-12T12:48:56.673Z,1023.28
2019-04-12T12:49:56.736Z,1023.27
2019-04-12T12:50:56.861Z,1023.35
2019-04-12T12:51:56.785Z,1023.27
2019-04-12T12:52:56.883Z,1023.21
2019-04-12T12:53:56.912Z,1023.22
2019-04-12T12:54:57.057Z,1023.2
2019-04-12T12:55:57.170Z,1023.16
2019-04-12T12:56:57.097Z,1023.26
2019-04-12T12:57:57.480Z,1023.23
2019-04-12T12:58:57.526Z,1023.18
2019-04-12T12:59:57.517Z,1023.24
2019-04-12T13:00:57.652Z,1023.15
2019-04-12T13:01:57.592Z,1023.21
2019-04-12T13:02:57.612Z,1023.12
2019-04-12T13:03:57.623Z,1023.19
2019-04-12T13:04:57.749Z,1023.2
2019-04-12T13:06:02.592Z,1023.15
2019-04-12T13:07:02.423Z,1023.09
2019-04-12T13:08:02.795Z,1023.09
2019-04-12T13:09:03.106Z,1023.11
2019-04-12T13:10:04.253Z,1023.06
2019-04-12T13:11:04.354Z,1023.08
2019-04-12T13:12:04.722Z,1023.05
2019-04-12T13:13:04.794Z,1023.08
2019-04-12T13:14:05.324Z,1023.09
2019-04-12T13:15:05.303Z,1023.08
2019-04-12T13:16:05.427Z,1023.09
2019-04-12T13:17:05.461Z,1023.09
2019-04-12T13:18:05.466Z,1023.06
2019-04-12T13:19:05.738Z,1023.04
2019-04-12T13:20:05.690Z,1023.05
2019-04-12T13:21:05.799Z,1023.07
2019-04-12T13:22:05.817Z,1023.03
2019-04-12T13:23:06.210Z,1023.01
2019-04-12T13:24:06.638Z,1023.05
2019-04-12T13:25:06.560Z,1023.02
2019-04-12T13:26:06.587Z,1023.03
2019-04-12T13:27:06.612Z,1023.01
2019-04-12T13:28:06.960Z,1022.99
2019-04-12T13:29:07.125Z,1023
2019-04-12T13:30:07.354Z,1023.01
2019-04-12T13:31:07.254Z,1022.98
2019-04-12T13:32:07.294Z,1022.95
2019-04-12T13:33:07.393Z,1022.96
2019-04-12T13:34:07.514Z,1022.92
2019-04-12T13:35:07.684Z,1022.93
2019-04-12T13:36:07.686Z,1022.96
2019-04-12T13:37:07.742Z,1022.93
2019-04-12T13:38:08.264Z,1022.97
2019-04-12T13:39:08.197Z,1022.97
2019-04-12T13:40:08.271Z,1023
2019-04-12T13:41:08.240Z,1022.94
2019-04-12T13:42:08.279Z,1022.97
2019-04-12T13:43:08.441Z,1022.93
2019-04-12T13:44:08.665Z,1023
2019-04-12T13:45:08.915Z,1022.98
2019-04-12T13:46:08.730Z,1022.94
2019-04-12T13:47:08.766Z,1023.01
2019-04-12T13:48:08.848Z,1023.01
2019-04-12T13:49:08.763Z,1022.95
2019-04-12T13:50:08.801Z,1022.9
2019-04-12T13:51:08.846Z,1022.97
2019-04-12T13:52:09.129Z,1022.95
2019-04-12T13:53:08.989Z,1022.93
2019-04-12T13:54:08.921Z,1022.96
2019-04-12T13:55:08.927Z,1023
2019-04-12T13:56:08.995Z,1022.95
2019-04-12T13:57:09.203Z,1022.89
2019-04-12T13:58:09.253Z,1022.87
2019-04-12T13:59:09.172Z,1022.92
2019-04-12T14:00:21.865Z,1022.88
2019-04-12T14:01:21.876Z,1022.94
2019-04-12T14:02:22.008Z,1022.86
2019-04-12T14:03:22.153Z,1022.92
2019-04-12T14:04:22.233Z,1022.85
2019-04-12T14:05:22.544Z,1022.85
2019-04-12T14:06:22.672Z,1022.84
2019-04-12T14:07:22.991Z,1022.82
2019-04-12T14:08:23.018Z,1022.8
2019-04-12T14:09:23.041Z,1022.81
2019-04-12T14:10:23.102Z,1022.81
2019-04-12T14:11:23.221Z,1022.82
2019-04-12T14:12:23.145Z,1022.84
2019-04-12T14:13:23.208Z,1022.86
2019-04-12T14:14:23.217Z,1022.82
2019-04-12T14:15:23.532Z,1022.78
2019-04-12T14:16:23.662Z,1022.8
2019-04-12T14:17:23.591Z,1022.76
2019-04-12T14:18:23.718Z,1022.81
2019-04-12T14:19:24.094Z,1022.77
2019-04-12T14:20:24.244Z,1022.77
2019-04-12T14:21:24.373Z,1022.75
2019-04-12T14:22:24.677Z,1022.78
2019-04-12T14:23:24.433Z,1022.8
2019-04-12T14:24:24.889Z,1022.87
2019-04-12T14:25:24.781Z,1022.8
2019-04-12T14:26:24.707Z,1022.75
2019-04-12T14:27:24.744Z,1022.78
2019-04-12T14:28:31.321Z,1022.7
2019-04-12T14:29:31.424Z,1022.72
2019-04-12T14:30:33.847Z,1022.77
2019-04-12T14:31:33.414Z,1022.7
2019-04-12T14:32:33.418Z,1022.75
2019-04-12T14:33:33.933Z,1022.7
2019-04-12T14:34:33.872Z,1022.7
2019-04-12T14:35:33.986Z,1022.68
2019-04-12T14:36:34.106Z,1022.7
2019-04-12T14:37:34.465Z,1022.69
2019-04-12T14:38:34.388Z,1022.66
2019-04-12T14:39:34.802Z,1022.69
2019-04-12T14:40:42.514Z,1022.7
2019-04-12T14:41:36.828Z,1022.73
2019-04-12T14:42:34.958Z,1022.71
2019-04-12T14:43:34.896Z,1022.69
2019-04-12T14:44:34.909Z,1022.64
2019-04-12T14:45:34.928Z,1022.65
2019-04-12T14:46:34.964Z,1022.62
2019-04-12T14:47:35.495Z,1022.64
2019-04-12T14:48:35.406Z,1022.62
2019-04-12T14:49:35.853Z,1022.64
2019-04-12T14:50:35.866Z,1022.63
2019-04-12T14:51:36.054Z,1022.65
2019-04-12T14:52:36.151Z,1022.66
2019-04-12T14:53:36.086Z,1022.68
2019-04-12T14:54:36.442Z,1022.63
2019-04-12T14:55:36.864Z,1022.63
2019-04-12T14:56:37.010Z,1022.71
2019-04-12T14:57:36.931Z,1022.62
2019-04-12T14:58:37.347Z,1022.65
2019-04-12T14:59:37.533Z,1022.73
2019-04-12T15:00:45.069Z,1022.64
2019-04-12T15:01:37.698Z,1022.63
2019-04-12T15:02:37.595Z,1022.62
2019-04-12T15:03:37.692Z,1022.61
2019-04-12T15:04:38.030Z,1022.61
2019-04-12T15:05:38.528Z,1022.63
2019-04-12T15:06:38.608Z,1022.61
2019-04-12T15:07:38.642Z,1022.71
2019-04-12T15:08:38.658Z,1022.68
2019-04-12T15:09:39.155Z,1022.58
2019-04-12T15:10:39.241Z,1022.58
2019-04-12T15:11:39.261Z,1022.61
2019-04-12T15:12:39.608Z,1022.59
2019-04-12T15:13:39.913Z,1022.57
2019-04-12T15:14:40.044Z,1022.56
2019-04-12T15:15:40.396Z,1022.63
2019-04-12T15:16:40.401Z,1022.57
2019-04-12T15:17:40.735Z,1022.59
2019-04-12T15:18:40.866Z,1022.53
2019-04-12T15:19:40.793Z,1022.52
2019-04-12T15:20:40.809Z,1022.56
2019-04-12T15:21:41.152Z,1022.5
2019-04-12T15:22:41.299Z,1022.58
2019-04-12T15:23:41.206Z,1022.55
2019-04-12T15:24:41.223Z,1022.54
2019-04-12T15:25:41.247Z,1022.57
2019-04-12T15:26:41.361Z,1022.55
2019-04-12T15:27:41.743Z,1022.59
2019-04-12T15:28:42.055Z,1022.56
2019-04-12T15:29:42.154Z,1022.6
2019-04-12T15:30:42.179Z,1022.57
2019-04-12T15:31:42.201Z,1022.55
2019-04-12T15:32:42.325Z,1022.56
2019-04-12T15:33:42.245Z,1022.57
2019-04-12T15:34:42.345Z,1022.53
2019-04-12T15:35:42.403Z,1022.53
2019-04-12T15:36:42.389Z,1022.56
2019-04-12T15:37:42.521Z,1022.46
2019-04-12T15:38:42.437Z,1022.47
2019-04-12T15:39:42.555Z,1022.46
2019-04-12T15:40:42.573Z,1022.49
2019-04-12T15:41:42.700Z,1022.5
2019-04-12T15:42:42.628Z,1022.49
2019-04-12T15:43:42.649Z,1022.49
2019-04-12T15:44:42.989Z,1022.48
2019-04-12T15:45:43.059Z,1022.45
2019-04-12T15:46:43.292Z,1022.48
2019-04-12T15:47:43.210Z,1022.47
2019-04-12T15:48:43.232Z,1022.44
2019-04-12T15:49:43.257Z,1022.45
2019-04-12T15:50:43.287Z,1022.51
2019-04-12T15:51:43.737Z,1022.5
2019-04-12T15:52:43.654Z,1022.49
2019-04-12T15:53:43.742Z,1022.46
2019-04-12T15:54:43.768Z,1022.58
2019-04-12T15:55:43.795Z,1022.46
2019-04-12T15:56:44.235Z,1022.44
2019-04-12T15:57:44.150Z,1022.48
2019-04-12T15:58:44.173Z,1022.47
2019-04-12T15:59:44.471Z,1022.47
2019-04-12T16:00:44.633Z,1022.45
2019-04-12T16:01:44.750Z,1022.49
2019-04-12T16:02:44.670Z,1022.47
2019-04-12T16:03:44.807Z,1022.52
2019-04-12T16:04:44.825Z,1022.5
2019-04-12T16:05:44.855Z,1022.46
2019-04-12T16:06:44.985Z,1022.48
2019-04-12T16:07:45.171Z,1022.49
2019-04-12T16:08:45.196Z,1022.46
2019-04-12T16:09:45.345Z,1022.45
2019-04-12T16:10:45.842Z,1022.41
2019-04-12T16:11:45.765Z,1022.41
2019-04-12T16:12:46.201Z,1022.42
2019-04-12T16:13:46.351Z,1022.44
2019-04-12T16:14:46.480Z,1022.45
2019-04-12T16:15:46.402Z,1022.48
2019-04-12T16:16:46.781Z,1022.46
2019-04-12T16:17:46.810Z,1022.5
2019-04-12T16:18:46.947Z,1022.41
2019-04-12T16:19:47.075Z,1022.49
2019-04-12T16:20:47.002Z,1022.44
2019-04-12T16:21:47.018Z,1022.49
2019-04-12T16:22:47.047Z,1022.44
2019-04-12T16:23:47.439Z,1022.43
2019-04-12T16:24:47.571Z,1022.46
2019-04-12T16:25:47.540Z,1022.4
2019-04-12T16:26:47.511Z,1022.47
2019-04-12T16:27:47.937Z,1022.41
2019-04-12T16:28:48.064Z,1022.53
2019-04-12T16:29:47.992Z,1022.47
2019-04-12T16:30:48.165Z,1022.42
2019-04-12T16:31:48.594Z,1022.39
2019-04-12T16:32:48.748Z,1022.4
2019-04-12T16:33:48.873Z,1022.49
2019-04-12T16:34:49.031Z,1022.45
2019-04-12T16:35:49.056Z,1022.42
2019-04-12T16:36:49.081Z,1022.44
2019-04-12T16:37:49.214Z,1022.41
2019-04-12T16:38:49.129Z,1022.37
2019-04-12T16:39:49.154Z,1022.4
2019-04-12T16:40:49.524Z,1022.39
2019-04-12T16:41:49.662Z,1022.41
2019-04-12T16:42:50.184Z,1022.42
2019-04-12T16:43:50.103Z,1022.41
2019-04-12T16:44:50.260Z,1022.44
2019-04-12T16:45:50.667Z,1022.4
2019-04-12T16:46:50.821Z,1022.46
2019-04-12T16:47:50.954Z,1022.49
2019-04-12T16:48:50.865Z,1022.5
2019-04-12T16:49:50.897Z,1022.49
2019-04-12T16:50:50.919Z,1022.45
2019-04-12T16:51:51.425Z,1022.53
2019-04-12T16:52:51.348Z,1022.53
2019-04-12T16:53:51.771Z,1022.53
2019-04-12T16:54:52.171Z,1022.48
2019-04-12T16:55:52.306Z,1022.52
2019-04-12T16:56:52.827Z,1022.51
2019-04-12T16:57:52.753Z,1022.44
2019-04-12T16:58:52.783Z,1022.48
2019-04-12T16:59:52.810Z,1022.52
2019-04-12T17:00:52.827Z,1022.5
2019-04-12T17:01:53.068Z,1022.57
2019-04-12T17:02:52.986Z,1022.51
2019-04-12T17:03:53.119Z,1022.5
2019-04-12T17:04:53.313Z,1022.58
2019-04-12T17:05:53.341Z,1022.53
2019-04-12T17:06:53.568Z,1022.53
2019-04-12T17:07:53.492Z,1022.52
2019-04-12T17:08:53.889Z,1022.59
2019-04-12T17:09:53.912Z,1022.6
2019-04-12T17:10:54.436Z,1022.55
2019-04-12T17:11:54.351Z,1022.6
2019-04-12T17:12:54.378Z,1022.59
2019-04-12T17:13:54.512Z,1022.53
2019-04-12T17:14:54.662Z,1022.61
2019-04-12T17:15:54.794Z,1022.58
2019-04-12T17:16:54.710Z,1022.59
2019-04-12T17:17:55.126Z,1022.63
2019-04-12T17:18:55.331Z,1022.6
2019-04-12T17:19:55.467Z,1022.59
2019-04-12T17:20:55.564Z,1022.58
2019-04-12T17:21:55.405Z,1022.58
2019-04-12T17:22:55.425Z,1022.63
2019-04-12T17:23:55.446Z,1022.62
2019-04-12T17:25:06.815Z,1022.63
2019-04-12T17:26:06.476Z,1022.65
2019-04-12T17:27:06.635Z,1022.69
2019-04-12T17:28:06.814Z,1022.67
2019-04-12T17:29:06.834Z,1022.66
2019-04-12T17:30:07.078Z,1022.66
2019-04-12T17:31:07.002Z,1022.68
2019-04-12T17:32:07.024Z,1022.71
2019-04-12T17:33:07.044Z,1022.66
2019-04-12T17:34:07.073Z,1022.7
2019-04-12T17:35:07.571Z,1022.68
2019-04-12T17:36:07.496Z,1022.68
2019-04-12T17:37:07.521Z,1022.68
2019-04-12T17:38:07.921Z,1022.74
2019-04-12T17:39:07.941Z,1022.67
2019-04-12T17:40:08.448Z,1022.77
2019-04-12T17:41:08.366Z,1022.77
2019-04-12T17:42:08.398Z,1022.77
2019-04-12T17:43:08.811Z,1022.76
2019-04-12T17:44:08.837Z,1022.75
2019-04-12T17:45:09.124Z,1022.73
2019-04-12T17:46:09.043Z,1022.77
2019-04-12T17:47:09.066Z,1022.73
2019-04-12T17:48:09.090Z,1022.78
2019-04-12T17:49:09.116Z,1022.72
2019-04-12T17:50:09.609Z,1022.87
2019-04-12T17:51:09.755Z,1022.78
2019-04-12T17:52:09.777Z,1022.83
2019-04-12T17:53:09.802Z,1022.75
2019-04-12T17:54:10.331Z,1022.86
2019-04-12T17:55:10.755Z,1022.82
2019-04-12T17:56:10.268Z,1022.84
2019-04-12T17:57:10.285Z,1022.84
2019-04-12T17:58:10.317Z,1022.78
2019-04-12T17:59:10.439Z,1022.82
2019-04-12T18:00:23.099Z,1022.84
2019-04-12T18:01:10.373Z,1022.84
2019-04-12T18:02:10.397Z,1022.84
2019-04-12T18:03:10.767Z,1022.86
2019-04-12T18:04:10.890Z,1022.85
2019-04-12T18:05:10.807Z,1022.81
2019-04-12T18:06:11.146Z,1022.87
2019-04-12T18:07:11.247Z,1022.86
2019-04-12T18:08:11.609Z,1022.86
2019-04-12T18:09:11.698Z,1022.88
2019-04-12T18:10:11.724Z,1022.87
2019-04-12T18:11:12.064Z,1022.84
2019-04-12T18:12:12.515Z,1022.86
2019-04-12T18:13:12.585Z,1022.86
2019-04-12T18:14:12.617Z,1022.84
2019-04-12T18:15:12.969Z,1022.84
2019-04-12T18:16:12.988Z,1022.87
2019-04-12T18:17:13.118Z,1022.92
2019-04-12T18:18:13.037Z,1022.92
2019-04-12T18:19:13.063Z,1022.91
2019-04-12T18:20:13.405Z,1022.92
2019-04-12T18:21:13.620Z,1022.93
2019-04-12T18:22:13.537Z,1022.91
2019-04-12T18:23:13.559Z,1022.93
2019-04-12T18:24:13.858Z,1023
2019-04-12T18:25:13.880Z,1023.04
2019-04-12T18:26:14.293Z,1022.99
2019-04-12T18:27:14.583Z,1022.96
2019-04-12T18:28:14.600Z,1023.02
2019-04-12T18:29:14.925Z,1023.03
2019-04-12T18:30:15.347Z,1023.02
2019-04-12T18:31:15.260Z,1023.05
2019-04-12T18:32:15.282Z,1023.06
2019-04-12T18:33:15.308Z,1023.09
2019-04-12T18:34:15.351Z,1023.07
2019-04-12T18:35:15.454Z,1023.05
2019-04-12T18:36:15.375Z,1023.11
2019-04-12T18:37:15.460Z,1023.16
2019-04-12T18:38:15.480Z,1023.11
2019-04-12T18:39:15.506Z,1023.09
2019-04-12T18:40:15.702Z,1023.1
2019-04-12T18:41:15.617Z,1023.12
2019-04-12T18:42:15.959Z,1023.16
2019-04-12T18:43:16.287Z,1023.11
2019-04-12T18:44:16.722Z,1023.17
2019-04-12T18:45:16.644Z,1023.11
2019-04-12T18:46:19.365Z,1023.12
2019-04-12T18:47:19.721Z,1023.1
2019-04-12T18:48:19.842Z,1023.14
2019-04-12T18:49:19.759Z,1023.16
2019-04-12T18:50:19.822Z,1023.17
2019-04-12T18:51:19.804Z,1023.16
2019-04-12T18:52:20.216Z,1023.15
2019-04-12T18:53:20.136Z,1023.22
2019-04-12T18:54:20.496Z,1023.17
2019-04-12T18:55:20.830Z,1023.18
2019-04-12T18:56:20.901Z,1023.15
2019-04-12T18:57:21.026Z,1023.21
2019-04-12T18:58:21.066Z,1023.26
2019-04-12T18:59:21.356Z,1023.27
2019-04-12T19:00:21.700Z,1023.25
2019-04-12T19:01:21.823Z,1023.29
2019-04-12T19:02:27.113Z,1023.24
2019-04-12T19:03:21.768Z,1023.19
2019-04-12T19:04:21.798Z,1023.27
2019-04-12T19:05:21.811Z,1023.26
2019-04-12T19:06:21.943Z,1023.25
2019-04-12T19:07:21.889Z,1023.3
2019-04-12T19:08:21.967Z,1023.25
2019-04-12T19:09:22.365Z,1023.24
2019-04-12T19:10:22.506Z,1023.25
2019-04-12T19:11:22.638Z,1023.2
2019-04-12T19:12:22.455Z,1023.2
2019-04-12T19:13:22.424Z,1023.25
2019-04-12T19:14:22.470Z,1023.23
2019-04-12T19:15:22.706Z,1023.23
2019-04-12T19:16:22.784Z,1023.23
2019-04-12T19:17:22.536Z,1023.19
2019-04-12T19:18:22.998Z,1023.23
2019-04-12T19:19:22.976Z,1023.27
2019-04-12T19:20:23.128Z,1023.28
2019-04-12T19:21:23.021Z,1023.32
2019-04-12T19:22:23.052Z,1023.27
2019-04-12T19:23:23.067Z,1023.3
2019-04-12T19:24:23.095Z,1023.31
2019-04-12T19:25:23.218Z,1023.33
2019-04-12T19:26:23.160Z,1023.34
2019-04-12T19:27:23.397Z,1023.31
2019-04-12T19:28:23.191Z,1023.33
2019-04-12T19:29:23.266Z,1023.28
2019-04-12T19:30:23.326Z,1023.32
2019-04-12T19:31:23.673Z,1023.31
2019-04-12T19:32:23.912Z,1023.38
2019-04-12T19:33:23.951Z,1023.34
2019-04-12T19:34:24.052Z,1023.3
2019-04-12T19:35:24.819Z,1023.33
2019-04-12T19:36:24.846Z,1023.31
2019-04-12T19:37:24.862Z,1023.31
2019-04-12T19:38:25.243Z,1023.3
2019-04-12T19:39:25.187Z,1023.29
2019-04-12T19:40:25.185Z,1023.29
2019-04-12T19:41:25.191Z,1023.28
2019-04-12T19:42:25.222Z,1023.25
2019-04-12T19:43:25.372Z,1023.22
2019-04-12T19:44:25.268Z,1023.25
2019-04-12T19:45:25.305Z,1023.25
2019-04-12T19:46:25.328Z,1023.26
2019-04-12T19:47:25.373Z,1023.27
2019-04-12T19:48:25.481Z,1023.25
2019-04-12T19:49:25.394Z,1023.28
2019-04-12T19:50:25.415Z,1023.26
2019-04-12T19:51:25.452Z,1023.26
2019-04-12T19:52:25.948Z,1023.28
2019-04-12T19:53:26.060Z,1023.28
2019-04-12T19:54:25.985Z,1023.26
2019-04-12T19:55:26.002Z,1023.26
2019-04-12T19:56:26.090Z,1023.26
2019-04-12T19:57:26.058Z,1023.23
2019-04-12T19:58:26.188Z,1023.26
2019-04-12T19:59:26.093Z,1023.22
2019-04-12T20:00:26.518Z,1023.27
2019-04-12T20:01:26.539Z,1023.23
2019-04-12T20:02:26.840Z,1023.25
2019-04-12T20:03:26.761Z,1023.25
2019-04-12T20:04:27.197Z,1023.25
2019-04-12T20:05:27.348Z,1023.25
2019-04-12T20:06:27.362Z,1023.23
2019-04-12T20:07:27.873Z,1023.23
2019-04-12T20:08:29.600Z,1023.24
2019-04-12T20:09:27.817Z,1023.22
2019-04-12T20:10:28.217Z,1023.28
2019-04-12T20:11:28.242Z,1023.19
2019-04-12T20:12:28.519Z,1023.23
2019-04-12T20:13:28.701Z,1023.23
2019-04-12T20:14:28.730Z,1023.32
2019-04-12T20:15:28.748Z,1023.23
2019-04-12T20:16:28.770Z,1023.24
2019-04-12T20:17:28.900Z,1023.23
2019-04-12T20:18:28.819Z,1023.21
2019-04-12T20:19:29.259Z,1023.2
2019-04-12T20:20:29.668Z,1023.2
2019-04-12T20:21:29.957Z,1023.17
2019-04-12T20:22:29.815Z,1023.21
2019-04-12T20:23:29.839Z,1023.13
2019-04-12T20:24:30.262Z,1023.13
2019-04-12T20:25:30.395Z,1023.19
2019-04-12T20:26:30.309Z,1023.15
2019-04-12T20:27:30.724Z,1023.16
2019-04-12T20:28:30.879Z,1023.12
2019-04-12T20:29:30.901Z,1023.1
2019-04-12T20:30:31.437Z,1023.12
2019-04-12T20:31:31.580Z,1023.11
2019-04-12T20:32:31.594Z,1023.14
2019-04-12T20:33:31.614Z,1023.1
2019-04-12T20:34:31.641Z,1023.12
2019-04-12T20:35:31.764Z,1023.11
2019-04-12T20:36:31.683Z,1023.09
2019-04-12T20:37:31.846Z,1023.11
2019-04-12T20:38:31.869Z,1023.09
2019-04-12T20:39:32.156Z,1023.08
2019-04-12T20:40:32.665Z,1023.12
2019-04-12T20:41:32.595Z,1023.14
2019-04-12T20:42:32.990Z,1023.13
2019-04-12T20:43:33.160Z,1023.13
2019-04-12T20:44:33.306Z,1023.1
2019-04-12T20:45:33.602Z,1023.11
2019-04-12T20:46:33.523Z,1023.1
2019-04-12T20:47:33.554Z,1023.12
2019-04-12T20:48:33.706Z,1023.09
2019-04-12T20:49:33.741Z,1023.1
2019-04-12T20:50:34.287Z,1023.13
2019-04-12T20:51:34.197Z,1022.99
2019-04-12T20:52:34.216Z,1023.06
2019-04-12T20:53:34.249Z,1023.11
2019-04-12T20:54:34.264Z,1023.1
2019-04-12T20:55:34.799Z,1023.11
2019-04-12T20:56:34.724Z,1023.06
2019-04-12T20:57:34.899Z,1023.12
2019-04-12T20:58:34.922Z,1023.11
2019-04-12T20:59:34.943Z,1023.09
2019-04-12T21:00:47.691Z,1023.13
2019-04-12T21:01:47.369Z,1023.11
2019-04-12T21:02:47.394Z,1023.09
2019-04-12T21:03:47.802Z,1023.1
2019-04-12T21:04:47.824Z,1023.07
2019-04-12T21:05:48.054Z,1023.08
2019-04-12T21:06:47.975Z,1023.13
2019-04-12T21:07:48.008Z,1023.06
2019-04-12T21:08:48.006Z,1023.06
2019-04-12T21:09:48.046Z,1023.04
2019-04-12T21:10:48.538Z,1023.1
2019-04-12T21:11:48.450Z,1023.09
2019-04-12T21:12:48.480Z,1023.07
2019-04-12T21:13:48.496Z,1023.08
2019-04-12T21:14:48.508Z,1023.05
2019-04-12T21:15:48.813Z,1023.07
2019-04-12T21:16:48.736Z,1023.09
2019-04-12T21:17:48.754Z,1023.11
2019-04-12T21:18:50.696Z,1023.1
2019-04-12T21:19:50.862Z,1023.07
2019-04-12T21:20:50.773Z,1023.11
2019-04-12T21:21:50.800Z,1023.12
2019-04-12T21:22:50.900Z,1023.12
2019-04-12T21:23:50.878Z,1023.1
2019-04-12T21:24:51.126Z,1023.15
2019-04-12T21:25:51.233Z,1023.14
2019-04-12T21:26:51.243Z,1023.13
2019-04-12T21:27:51.274Z,1023.11
2019-04-12T21:28:51.550Z,1023.12
2019-04-12T21:29:51.470Z,1023.1
2019-04-12T21:30:51.484Z,1023.09
2019-04-12T21:31:51.723Z,1023.16
2019-04-12T21:32:53.194Z,1023.09
2019-04-12T21:33:51.691Z,1023.1
2019-04-12T21:34:51.590Z,1023.08
2019-04-12T21:35:51.689Z,1023.1
2019-04-12T21:36:51.726Z,1023.16
2019-04-12T21:37:52.074Z,1023.11
2019-04-12T21:38:52.244Z,1023.12
2019-04-12T21:39:52.542Z,1023.13
2019-04-12T21:40:52.920Z,1023.11
2019-04-12T21:41:52.928Z,1023.09
2019-04-12T21:42:53.214Z,1023.13
2019-04-12T21:43:53.132Z,1023.09
2019-04-12T21:44:53.148Z,1023.07
2019-04-12T21:45:53.451Z,1023.06
2019-04-12T21:46:53.461Z,1023.11
2019-04-12T21:47:53.948Z,1023.1
2019-04-12T21:48:53.862Z,1023.06
2019-04-12T21:49:54.106Z,1023.06
2019-04-12T21:50:54.366Z,1023.02
2019-04-12T21:51:54.423Z,1023.08
2019-04-12T21:52:54.562Z,1023.04
2019-04-12T21:53:54.478Z,1023.05